Flight Track Log - Related Links

Times and Time Zones

All times are in EST time to prevent confusion due to time zone crossing. See the UPS1305 flight status page for this flight to view local times or setup timezone preferences in your user account.

Time Position Orientation Groundspeed Altitude Reporting Facility
EST Latitude Longitude Course Direction KTS MPH feet Rate Location/Type
10:07PM 33.6450 -84.4630 267° West 170 196 2,800  Level FlightAware
10:07PM 33.6520 -84.4890 288° West 203 234 3,300 1,179 Climbing FlightAware
10:08PM 33.6670 -84.5150 305° West 244 281 3,900 2,830 Climbing FlightAware
10:08PM 33.6820 -84.5480 299° West 247 284 5,800 3,667 Climbing FlightAware
10:09PM 33.7010 -84.5750 310° West 249 287 7,200 2,737 Climbing FlightAware
10:09PM 33.7350 -84.5850 346° North 276 318 8,400 2,438 Climbing FlightAware
10:10PM 33.7850 -84.5830 North 290 334 9,800 1,500 Climbing FlightAware
10:10PM 33.8190 -84.5810 North 304 350 9,800 1,443 Level FlightAware
10:11PM 33.9050 -84.5790 North 333 383 11,700 1,926 Climbing FlightAware
10:11PM 33.9460 -84.5800 359° North 360 414 12,400 2,000 Climbing FlightAware
10:13PM 34.0710 -84.5860 358° North 400 460 14,900 2,289 Climbing FlightAware
10:13PM 34.1222 -84.5882 358° North 405 466 16,100 2,586 Climbing FlightAware ADS-B
10:14PM 34.1805 -84.5904 358° North 412 474 17,400 2,381 Climbing FlightAware ADS-B
10:14PM 34.2426 -84.5928 358° North 419 482 18,600 2,182 Climbing FlightAware ADS-B
10:15PM 34.2870 -84.5960 357° North 422 486 19,400 2,143 Climbing FlightAware ADS-B
10:15PM 34.3506 -84.6104 349° North 426 490 20,600 2,095 Climbing FlightAware ADS-B
10:16PM 34.4097 -84.6253 348° North 431 496 21,600 2,100 Climbing FlightAware ADS-B
10:16PM 34.4690 -84.6401 348° North 435 501 22,700 2,069 Climbing FlightAware ADS-B
10:17PM 34.5228 -84.6533 349° North 441 507 23,600 1,714 Climbing FlightAware ADS-B
10:17PM 34.5525 -84.6585 352° North 449 517 23,900 1,867 Climbing FlightAware ADS-B
10:17PM 34.6179 -84.6649 355° North 453 521 25,000 1,781 Climbing FlightAware ADS-B
10:18PM 34.6859 -84.6712 356° North 458 527 25,800 1,619 Climbing FlightAware ADS-B
10:18PM 34.7499 -84.6771 356° North 461 531 26,700 1,400 Climbing FlightAware ADS-B
10:19PM 34.8159 -84.6832 356° North 470 541 27,200 1,200 Climbing FlightAware ADS-B
10:19PM 34.8909 -84.6899 356° North 476 548 28,000 818 Climbing FlightAware ADS-B
10:20PM 34.9608 -84.6964 356° North 481 554 28,100 1,103 Climbing FlightAware ADS-B
10:21PM 35.0842 -84.7077 356° North 479 551 29,600 1,586 Climbing FlightAware ADS-B
10:21PM 35.1528 -84.7140 356° North 479 551 30,400 1,672 Climbing FlightAware ADS-B
10:22PM 35.2192 -84.7200 356° North 471 542 31,300 1,600 Climbing FlightAware ADS-B
10:22PM 35.2848 -84.7261 356° North 469 540 32,000 689 Climbing FlightAware ADS-B
10:23PM 35.3511 -84.7325 355° North 475 547 32,000  Level FlightAware ADS-B
10:23PM 35.4166 -84.7387 356° North 472 543 32,000  Level FlightAware ADS-B
10:24PM 35.4829 -84.7450 356° North 472 543 32,000  Level FlightAware ADS-B
10:24PM 35.5488 -84.7512 356° North 474 545 32,000  Level FlightAware ADS-B
10:25PM 35.6162 -84.7575 356° North 478 550 32,000  Level FlightAware ADS-B
10:25PM 35.6836 -84.7637 356° North 474 545 32,000  Level FlightAware ADS-B
10:26PM 35.7491 -84.7698 356° North 471 542 32,000  Level FlightAware ADS-B
10:26PM 35.8163 -84.7766 355° North 473 544 32,000  Level FlightAware ADS-B
10:27PM 35.8854 -84.7841 355° North 474 545 32,000  Level FlightAware ADS-B
10:27PM 35.9517 -84.7911 355° North 476 548 32,000  Level FlightAware ADS-B
10:28PM 36.0180 -84.7979 355° North 475 547 32,000  Level FlightAware ADS-B
10:28PM 36.0845 -84.8047 355° North 475 547 32,000  Level FlightAware ADS-B
10:29PM 36.1603 -84.8125 355° North 474 545 32,000  Level FlightAware ADS-B
10:30PM 36.2260 -84.8194 355° North 474 545 32,000 -1,254 Level FlightAware ADS-B
10:30PM 36.3063 -84.8276 355° North 460 529 30,600 -1,791 Descending FlightAware ADS-B
10:31PM 36.3702 -84.8339 355° North 461 531 30,000 -700 Descending FlightAware ADS-B
10:31PM 36.4345 -84.8399 356° North 461 531 29,900 -581 Descending FlightAware ADS-B
10:32PM 36.5014 -84.8459 356° North 467 537 29,400 -1,258 Descending FlightAware ADS-B
10:32PM 36.5666 -84.8518 356° North 464 534 28,600 -1,770 Descending FlightAware ADS-B
10:33PM 36.6325 -84.8579 356° North 459 528 27,600 -2,129 Descending FlightAware ADS-B
10:33PM 36.6996 -84.8642 356° North 462 532 26,400 -2,261 Descending FlightAware ADS-B
10:34PM 36.7794 -84.8716 356° North 456 525 25,000 -2,294 Descending FlightAware ADS-B
10:34PM 36.8421 -84.8773 356° North 450 518 23,800 -2,361 Descending FlightAware ADS-B
10:35PM 36.9064 -84.8833 356° North 448 516 22,600 -2,190 Descending FlightAware ADS-B
10:35PM 36.9704 -84.8888 356° North 428 493 21,500 -2,215 Descending FlightAware ADS-B
10:36PM 37.0356 -84.8949 356° North 419 482 20,200 -2,215 Descending FlightAware ADS-B
10:37PM 37.0961 -84.9006 356° North 415 478 19,100 -2,040 Descending FlightAware ADS-B
10:38PM 37.2222 -84.9124 356° North 401 461 16,800 -1,966 Descending FlightAware ADS-B
10:38PM 37.3050 -84.9200 356° North 370 426 15,300 -1,904 Descending FlightAware
10:39PM 37.4000 -84.9290 356° North 363 418 13,500 -1,981 Descending FlightAware
10:40PM 37.4830 -84.9370 356° North 348 400 11,800 -1,981 Descending FlightAware
10:41PM 37.5730 -84.9460 355° North 345 397 10,000 -1,703 Descending FlightAware
10:41PM 37.6020 -84.9480 357° North 345 397 9,700 -367 Descending FlightAware
10:42PM 37.6480 -84.9570 351° North 340 391 9,700  Level FlightAware
10:42PM 37.6830 -84.9900 323° Northwest 333 383 9,700  Level FlightAware
10:43PM 37.7140 -85.0330 312° West 333 383 9,700  Level FlightAware
10:44PM 37.7510 -85.0900 309° West 313 360 9,700  Level FlightAware
10:44PM 37.7700 -85.1400 296° West 304 350 9,700  Level FlightAware
10:45PM 37.7840 -85.1790 294° West 271 312 9,700 -133 Level FlightAware
10:45PM 37.7940 -85.2070 294° West 255 293 9,600 -960 Descending FlightAware
10:45PM 37.8080 -85.2470 294° West 247 284 8,900 -1,448 Descending FlightAware
10:46PM 37.8220 -85.2840 296° West 244 281 8,200 -1,440 Descending FlightAware
10:46PM 37.8310 -85.3100 294° West 242 278 7,700 -1,500 Descending FlightAware
10:47PM 37.8470 -85.3540 295° West 237 273 6,800 -1,600 Descending FlightAware
10:47PM 37.8610 -85.3880 298° West 236 272 6,100 -1,552 Descending FlightAware
10:48PM 37.8780 -85.4260 300° West 232 267 5,300 -1,500 Descending FlightAware
10:48PM 37.8910 -85.4540 300° West 231 266 4,700 -1,385 Descending FlightAware
10:49PM 37.9050 -85.4870 298° West 227 261 4,100 -1,385 Descending FlightAware
10:49PM 37.9170 -85.5130 300° West 225 259 3,500 -1,082 Descending FlightAware
10:50PM 37.9360 -85.5520 302° West 214 246 3,000 -737 Descending FlightAware
10:50PM 37.9470 -85.5710 306° West 208 239 2,800 -686 Descending FlightAware
10:50PM 37.9550 -85.5850 306° West 196 226 2,600 -300 Descending FlightAware
10:51PM 37.9800 -85.6230 310° West 173 199 2,500  Descending FlightAware
10:51PM 37.9920 -85.6430 307° West 174 200 2,600 -190 Climbing FlightAware
10:52PM 38.0120 -85.6720 311° West 159 183 2,300 -556 Descending FlightAware
10:52PM 38.0240 -85.6850 320° Northwest 156 180 2,100 -240 Descending FlightAware
10:53PM 38.0410 -85.6990 327° Northwest 157 181 2,100  Level FlightAware
10:53PM 38.0640 -85.7080 343° North 157 181 2,100 -321 Level FlightAware
10:54PM 38.0800 -85.7130 346° North 136 157 1,800 -700 Descending FlightAware
10:54PM 38.1000 -85.7200 345° North 122 140 1,400 -656 Descending FlightAware
10:55PM 38.1150 -85.7250 345° North 124 143 1,100 -724 Descending FlightAware
10:55PM 38.1320 -85.7310 344° North 130 150 700 -750 Descending FlightAware
10:56PM 38.1480 -85.7360 346° North 132 152 400 -649 Descending FlightAware
10:56PM 38.1540 -85.7380 345° North 133 153 300 -545 Descending FlightAware

Login

Don't have an account? Register now (free) for customized features, flight alerts, and more!